Time;durP1;ratioP1;P1;durP2;ratioP2;P2;SDS_P1;SDS_P2;PMS_P1;PMS_P2;Temp;Humidity;BMP_temperature;BMP_pressure;BME280_temperature;BME280_humidity;BME280_pressure;Samples;Min_cycle;Max_cycle;Signal;HPM_P1;HPM_P2
2023/05/27 00:00:26;;;;;;;6.72;4.20;;;;;;;23.44;45.92;99858.81;4494445;31;34118;-66
2023/05/27 00:02:54;;;;;;;5.65;3.62;;;;;;;23.50;46.03;99860.75;4493720;31;34304;-66
2023/05/27 00:05:21;;;;;;;4.85;3.17;;;;;;;23.55;45.72;99857.44;4494548;31;33509;-66
2023/05/27 00:07:49;;;;;;;5.50;3.12;;;;;;;23.58;46.04;99862.50;4495474;31;34178;-66
2023/05/27 00:10:17;;;;;;;6.55;4.35;;;;;;;23.57;45.73;99855.34;4490269;31;33754;-66
2023/05/27 00:12:44;;;;;;;6.43;4.32;;;;;;;23.54;45.90;99862.06;4495551;31;34665;-66
2023/05/27 00:15:12;;;;;;;11.88;4.75;;;;;;;23.50;46.18;99852.56;4488875;31;33608;-65
2023/05/27 00:17:42;;;;;;;7.05;3.90;;;;;;;23.55;45.80;99852.81;4485751;31;33780;-65
2023/05/27 00:20:12;;;;;;;8.15;5.20;;;;;;;23.60;45.66;99844.03;4493250;31;33857;-62
2023/05/27 00:22:41;;;;;;;7.15;4.22;;;;;;;23.54;45.73;99853.00;4483159;31;34274;-63
2023/05/27 00:25:09;;;;;;;10.73;4.53;;;;;;;23.59;45.65;99853.25;4493527;31;35245;-63
2023/05/27 00:27:37;;;;;;;7.87;4.20;;;;;;;23.49;45.72;99851.69;4494039;31;33722;-62
2023/05/27 00:30:05;;;;;;;12.30;5.68;;;;;;;23.56;45.68;99856.37;4495019;31;33990;-64
2023/05/27 00:32:33;;;;;;;5.95;3.97;;;;;;;23.39;46.03;99853.06;4491256;31;34453;-64
2023/05/27 00:35:00;;;;;;;6.55;4.65;;;;;;;23.47;45.97;99853.78;4488216;31;35430;-64
2023/05/27 00:37:28;;;;;;;15.63;4.35;;;;;;;23.54;45.86;99848.41;4495946;31;35879;-65
2023/05/27 00:39:55;;;;;;;8.77;4.45;;;;;;;23.55;45.92;99850.06;4494684;31;34063;-64
2023/05/27 00:42:23;;;;;;;7.30;4.07;;;;;;;23.41;46.16;99846.38;4489875;31;33491;-65
2023/05/27 00:44:51;;;;;;;7.25;3.85;;;;;;;23.47;45.92;99842.03;4482169;31;33795;-65
2023/05/27 00:47:19;;;;;;;6.43;3.95;;;;;;;23.25;46.60;99844.75;4489496;31;34084;-64
2023/05/27 00:49:48;;;;;;;8.18;4.65;;;;;;;23.34;46.48;99847.34;4478969;31;34877;-66
2023/05/27 00:52:16;;;;;;;6.95;4.25;;;;;;;23.35;46.52;99841.69;4482587;31;32326;-67
2023/05/27 00:54:43;;;;;;;4.82;3.33;;;;;;;23.38;46.49;99837.75;4485583;31;32136;-65
2023/05/27 00:57:11;;;;;;;7.90;4.75;;;;;;;23.35;46.59;99838.97;4483009;31;33645;-64
2023/05/27 00:59:39;;;;;;;7.15;4.60;;;;;;;23.13;47.00;99850.91;4490091;31;34066;-63
2023/05/27 01:02:06;;;;;;;6.95;4.60;;;;;;;23.18;47.12;99849.31;4494524;31;33493;-63
2023/05/27 01:04:36;;;;;;;7.50;4.82;;;;;;;23.20;46.94;99849.94;4484856;31;33962;-63
2023/05/27 01:07:10;;;;;;;7.68;4.12;;;;;;;23.35;46.66;99843.59;4497032;31;33773;-63
2023/05/27 01:09:41;;;;;;;6.07;3.67;;;;;;;23.44;46.35;99848.72;4488365;31;34191;-63
2023/05/27 01:12:16;;;;;;;10.82;4.80;;;;;;;23.42;46.44;99849.94;4489447;31;33347;-64
2023/05/27 01:14:45;;;;;;;7.20;4.22;;;;;;;23.36;46.29;99856.19;4490766;31;33860;-61
2023/05/27 01:17:15;;;;;;;9.38;4.70;;;;;;;23.43;46.05;99837.97;4481148;32;35229;-61
2023/05/27 01:19:44;;;;;;;9.27;5.10;;;;;;;23.27;46.41;99843.69;4486465;31;32972;-61
2023/05/27 01:22:13;;;;;;;8.43;4.53;;;;;;;23.34;46.15;99842.75;4494640;31;34816;-62
2023/05/27 01:24:41;;;;;;;7.87;4.25;;;;;;;23.33;46.18;99838.31;4492881;31;32665;-61
2023/05/27 01:27:11;;;;;;;8.30;4.30;;;;;;;23.36;46.02;99843.38;4493003;31;33936;-61
2023/05/27 01:29:41;;;;;;;12.82;6.07;;;;;;;23.32;46.22;99835.78;4493509;31;33372;-64
2023/05/27 01:32:27;;;;;;;10.93;5.32;;;;;;;23.39;45.72;99825.75;4481100;31;34830;-64
2023/05/27 01:34:59;;;;;;;7.85;4.40;;;;;;;23.22;46.21;99836.94;4474595;31;34033;-64
2023/05/27 01:37:30;;;;;;;8.77;4.55;;;;;;;23.26;46.22;99840.13;4483311;31;33836;-64
2023/05/27 01:39:58;;;;;;;5.25;3.25;;;;;;;23.23;46.16;99833.16;4488132;31;34242;-64
2023/05/27 01:42:25;;;;;;;7.85;4.60;;;;;;;23.23;46.30;99829.59;4489411;31;33434;-62
2023/05/27 01:44:53;;;;;;;7.90;5.07;;;;;;;23.34;45.87;99825.50;4497781;31;34015;-62
2023/05/27 01:47:21;;;;;;;7.75;5.10;;;;;;;23.31;45.88;99831.38;4487962;31;33879;-62
2023/05/27 01:49:49;;;;;;;10.40;4.97;;;;;;;23.22;46.18;99828.75;4492937;31;37544;-62
2023/05/27 01:52:16;;;;;;;7.82;4.18;;;;;;;23.00;46.71;99829.78;4494343;31;31729;-62
2023/05/27 01:54:44;;;;;;;6.57;3.87;;;;;;;23.03;46.47;99826.66;4489800;31;33694;-62
2023/05/27 01:57:12;;;;;;;6.37;4.15;;;;;;;22.95;46.64;99824.91;4481781;31;35187;-62
2023/05/27 01:59:40;;;;;;;9.95;4.90;;;;;;;22.90;46.78;99819.16;4493769;31;33263;-62
2023/05/27 02:02:09;;;;;;;8.98;4.97;;;;;;;22.82;47.05;99827.44;4497181;31;34300;-62
2023/05/27 02:04:37;;;;;;;10.02;4.68;;;;;;;22.69;47.27;99824.56;4495882;31;33639;-62
2023/05/27 02:07:05;;;;;;;8.00;4.15;;;;;;;22.63;47.42;99828.03;4497221;31;32532;-62
2023/05/27 02:09:33;;;;;;;10.27;4.40;;;;;;;22.72;47.27;99830.47;4496704;31;33841;-62
2023/05/27 02:12:01;;;;;;;7.20;5.25;;;;;;;22.44;47.93;99824.88;4492417;31;33127;-62
2023/05/27 02:14:30;;;;;;;7.35;4.70;;;;;;;22.39;47.93;99827.31;4495756;31;33653;-61
2023/05/27 02:16:58;;;;;;;7.28;4.65;;;;;;;22.43;47.86;99828.63;4496472;31;33807;-61
2023/05/27 02:19:28;;;;;;;11.88;5.70;;;;;;;22.36;48.22;99832.31;4482215;31;34094;-61
2023/05/27 02:21:55;;;;;;;7.15;4.90;;;;;;;22.41;48.08;99829.88;4489716;31;33705;-64
2023/05/27 02:24:23;;;;;;;7.93;4.53;;;;;;;22.38;48.06;99830.25;4490730;31;33766;-62
2023/05/27 02:26:51;;;;;;;10.75;5.25;;;;;;;22.43;47.76;99827.78;4489499;31;33785;-62
2023/05/27 02:29:18;;;;;;;8.30;4.75;;;;;;;22.21;48.14;99822.25;4492958;31;34076;-62
2023/05/27 02:31:48;;;;;;;6.65;4.10;;;;;;;22.25;48.30;99830.91;4486902;31;33521;-63
2023/05/27 02:34:16;;;;;;;14.18;4.78;;;;;;;22.31;48.05;99830.12;4493068;31;34743;-63
2023/05/27 02:36:43;;;;;;;9.75;4.70;;;;;;;22.35;47.81;99830.63;4493742;31;33805;-63
2023/05/27 02:39:12;;;;;;;8.32;4.82;;;;;;;22.16;48.15;99829.31;4495468;31;33823;-62
2023/05/27 02:41:39;;;;;;;9.52;5.28;;;;;;;22.29;48.02;99832.22;4492266;31;35297;-62
2023/05/27 02:44:07;;;;;;;8.63;4.70;;;;;;;22.10;48.33;99833.59;4486539;31;34929;-62
2023/05/27 02:46:35;;;;;;;7.47;4.53;;;;;;;22.08;48.16;99839.22;4492304;31;33984;-62
2023/05/27 02:49:03;;;;;;;8.60;5.35;;;;;;;22.22;48.02;99829.41;4481494;31;34912;-62
2023/05/27 02:51:30;;;;;;;9.23;4.45;;;;;;;22.32;47.46;99832.69;4488557;31;32765;-63
2023/05/27 02:53:58;;;;;;;10.00;5.55;;;;;;;22.35;47.39;99834.19;4485550;31;34717;-63
2023/05/27 02:56:27;;;;;;;7.60;4.50;;;;;;;22.17;47.59;99829.12;4492574;31;33398;-63
2023/05/27 02:58:55;;;;;;;9.00;5.40;;;;;;;22.02;48.13;99831.81;4496132;31;35061;-63
2023/05/27 03:01:23;;;;;;;6.60;4.28;;;;;;;22.07;47.86;99829.34;4493865;31;33412;-63
2023/05/27 03:03:51;;;;;;;12.50;5.00;;;;;;;22.17;47.70;99833.72;4495710;31;34563;-63
2023/05/27 03:06:18;;;;;;;8.65;5.22;;;;;;;22.17;47.65;99834.56;4492837;31;34948;-64
2023/05/27 03:08:46;;;;;;;9.07;5.55;;;;;;;22.22;47.45;99837.59;4496890;31;36538;-63
2023/05/27 03:11:14;;;;;;;8.52;5.78;;;;;;;22.14;47.46;99834.91;4491051;31;33241;-64
2023/05/27 03:13:41;;;;;;;7.87;4.57;;;;;;;22.18;47.37;99843.59;4491112;31;33434;-63
2023/05/27 03:16:10;;;;;;;10.48;5.03;;;;;;;22.17;47.38;99834.56;4490043;31;34971;-63
2023/05/27 03:18:38;;;;;;;9.05;5.18;;;;;;;22.25;47.40;99839.09;4495097;31;34958;-64
2023/05/27 03:21:06;;;;;;;9.77;5.62;;;;;;;22.25;47.39;99841.81;4492998;31;34471;-66
2023/05/27 03:23:34;;;;;;;6.20;3.47;;;;;;;22.31;47.22;99836.47;4480773;31;34415;-64
2023/05/27 03:26:01;;;;;;;10.98;4.95;;;;;;;22.38;47.15;99836.56;4492408;31;34513;-65
2023/05/27 03:28:30;;;;;;;8.18;4.05;;;;;;;22.39;47.06;99840.97;4495767;31;33637;-64
2023/05/27 03:30:57;;;;;;;7.80;4.40;;;;;;;22.29;47.25;99845.84;4491953;31;33343;-64
2023/05/27 03:33:25;;;;;;;7.95;3.80;;;;;;;22.37;46.83;99844.91;4495979;31;34155;-65
2023/05/27 03:35:55;;;;;;;6.15;3.45;;;;;;;22.40;46.74;99849.97;4489234;31;32461;-62
2023/05/27 03:38:23;;;;;;;9.23;4.87;;;;;;;22.45;46.90;99844.81;4487575;31;31645;-62
2023/05/27 03:40:51;;;;;;;12.40;5.03;;;;;;;22.29;47.04;99851.31;4489294;31;33494;-62
2023/05/27 03:43:18;;;;;;;9.23;4.25;;;;;;;22.25;47.16;99848.13;4493318;31;32173;-62
2023/05/27 03:45:47;;;;;;;6.93;4.47;;;;;;;22.41;47.29;99854.44;4488196;31;32680;-61
2023/05/27 03:48:14;;;;;;;9.73;4.93;;;;;;;22.62;47.20;99850.91;4479231;31;34835;-62
2023/05/27 03:50:42;;;;;;;10.55;4.93;;;;;;;22.65;46.71;99854.09;4481034;31;33130;-62
2023/05/27 03:53:10;;;;;;;7.62;4.78;;;;;;;22.82;45.92;99846.53;4491114;31;34734;-62
2023/05/27 03:55:38;;;;;;;6.47;4.07;;;;;;;22.68;47.10;99856.44;4491691;31;33898;-62
2023/05/27 03:58:06;;;;;;;6.47;3.97;;;;;;;22.79;46.06;99849.66;4492413;31;34919;-62
2023/05/27 04:00:36;;;;;;;6.65;3.87;;;;;;;22.87;45.77;99852.28;4495496;31;33576;-62
2023/05/27 04:03:05;;;;;;;8.82;4.50;;;;;;;22.76;46.06;99853.63;4494058;31;33805;-61
2023/05/27 04:05:33;;;;;;;15.77;3.70;;;;;;;22.99;45.48;99850.78;4493912;31;33768;-62
2023/05/27 04:08:03;;;;;;;6.35;4.15;;;;;;;22.98;45.31;99851.78;4488422;31;33870;-62
2023/05/27 04:10:31;;;;;;;8.30;4.78;;;;;;;23.06;45.19;99850.00;4492616;31;32840;-62
2023/05/27 04:12:58;;;;;;;7.05;4.22;;;;;;;22.82;46.26;99853.88;4487326;31;33950;-62
2023/05/27 04:15:26;;;;;;;7.85;4.45;;;;;;;23.21;45.04;99850.78;4488008;31;34093;-62
2023/05/27 04:17:54;;;;;;;7.43;3.87;;;;;;;23.32;44.73;99847.53;4489333;31;181386;-62
2023/05/27 04:20:22;;;;;;;11.48;4.18;;;;;;;23.32;45.68;99843.97;4496783;31;33436;-62
2023/05/27 04:22:50;;;;;;;8.43;3.95;;;;;;;23.61;45.32;99849.28;4494938;31;32294;-62
2023/05/27 04:25:18;;;;;;;6.15;3.58;;;;;;;23.71;44.45;99854.44;4490354;31;33693;-62
2023/05/27 04:27:46;;;;;;;8.02;4.90;;;;;;;23.58;44.87;99857.03;4486568;31;33995;-62
2023/05/27 04:30:14;;;;;;;5.43;4.20;;;;;;;23.83;44.16;99850.13;4496107;31;33431;-62
2023/05/27 04:32:42;;;;;;;6.68;3.92;;;;;;;23.93;43.90;99867.03;4486762;31;34800;-62
2023/05/27 04:35:10;;;;;;;7.20;3.97;;;;;;;24.11;44.16;99868.44;4482534;31;34832;-61
2023/05/27 04:37:40;;;;;;;7.85;4.87;;;;;;;24.07;45.02;99873.44;4493736;31;33828;-62
2023/05/27 04:40:10;;;;;;;7.40;4.43;;;;;;;24.14;43.80;99873.47;4492812;31;34684;-61
2023/05/27 04:42:38;;;;;;;8.00;4.72;;;;;;;24.08;43.79;99871.56;4490009;31;34739;-62
2023/05/27 04:45:08;;;;;;;10.13;4.43;;;;;;;23.96;44.28;99864.97;4493067;31;33781;-62
2023/05/27 04:47:40;;;;;;;9.38;4.72;;;;;;;24.33;43.61;99869.19;4496746;31;34813;-62
2023/05/27 04:50:09;;;;;;;9.63;6.18;;;;;;;24.34;43.62;99865.44;4491853;31;33500;-62
2023/05/27 04:52:40;;;;;;;9.07;4.25;;;;;;;24.21;44.15;99871.66;4496460;31;34646;-62
2023/05/27 04:55:09;;;;;;;9.05;4.93;;;;;;;24.39;43.27;99866.50;4482148;31;35313;-65
2023/05/27 04:57:41;;;;;;;10.15;5.47;;;;;;;24.34;44.08;99870.91;4487674;31;34705;-64
2023/05/27 05:02:39;;;;;;;6.57;4.53;;;;;;;24.33;43.66;99875.53;4491760;31;33654;-63
2023/05/27 05:05:10;;;;;;;6.97;4.87;;;;;;;24.43;43.84;99866.13;4486408;31;33215;-63
2023/05/27 05:07:41;;;;;;;8.05;4.60;;;;;;;24.49;42.53;99876.25;4493084;31;33575;-63
2023/05/27 05:10:09;;;;;;;7.65;4.25;;;;;;;24.59;42.02;99883.06;4493335;31;33621;-63
2023/05/27 05:12:38;;;;;;;13.82;4.87;;;;;;;24.20;42.24;99886.34;4488542;31;32145;-63
2023/05/27 05:15:07;;;;;;;7.72;4.45;;;;;;;24.56;41.99;99883.47;4497198;31;33881;-63
2023/05/27 05:17:35;;;;;;;7.57;4.37;;;;;;;24.51;42.54;99879.66;4498328;31;35035;-63
2023/05/27 05:20:04;;;;;;;8.80;4.60;;;;;;;24.72;41.57;99889.63;4499797;31;32295;-63
2023/05/27 05:22:32;;;;;;;7.68;4.37;;;;;;;24.36;42.05;99885.19;4496053;31;33938;-63
2023/05/27 05:24:59;;;;;;;8.02;5.22;;;;;;;23.98;42.73;99888.31;4487103;31;34977;-63
2023/05/27 05:27:28;;;;;;;8.95;4.32;;;;;;;24.42;42.35;99887.16;4487600;31;34668;-63
2023/05/27 05:29:56;;;;;;;8.10;5.05;;;;;;;24.55;42.06;99892.72;4498276;31;33537;-60
2023/05/27 05:32:23;;;;;;;9.68;5.10;;;;;;;24.62;41.67;99890.00;4498446;31;33779;-60
2023/05/27 05:34:51;;;;;;;8.63;3.97;;;;;;;24.57;41.84;99890.62;4498422;31;33597;-60
2023/05/27 05:37:19;;;;;;;7.45;4.12;;;;;;;24.16;41.48;99898.75;4488183;31;33660;-63
2023/05/27 05:39:46;;;;;;;6.45;4.65;;;;;;;23.90;42.95;99897.50;4495727;31;33609;-62
2023/05/27 05:42:14;;;;;;;6.82;4.05;;;;;;;24.75;40.18;99892.84;4499362;31;35204;-62
2023/05/27 05:44:42;;;;;;;9.57;3.85;;;;;;;24.77;39.78;99900.84;4491654;31;32403;-63
2023/05/27 05:47:09;;;;;;;10.63;4.37;;;;;;;24.48;40.43;99896.47;4491423;31;34899;-62
2023/05/27 05:49:37;;;;;;;8.35;4.53;;;;;;;24.76;39.92;99904.63;4495384;31;33635;-63
2023/05/27 05:52:05;;;;;;;6.93;3.62;;;;;;;24.53;41.17;99910.41;4493047;31;33680;-62
2023/05/27 05:54:33;;;;;;;6.90;3.67;;;;;;;24.63;41.57;99908.97;4492360;31;33847;-62
2023/05/27 05:57:02;;;;;;;10.13;3.95;;;;;;;24.39;42.14;99913.00;4486592;31;34674;-62
2023/05/27 05:59:30;;;;;;;7.03;4.22;;;;;;;24.23;42.34;99917.94;4494632;31;33535;-62
2023/05/27 06:01:57;;;;;;;9.13;3.80;;;;;;;24.52;41.12;99915.00;4490540;31;33536;-62
2023/05/27 06:04:26;;;;;;;8.93;4.45;;;;;;;24.78;40.32;99922.53;4494597;31;34073;-62
2023/05/27 06:06:54;;;;;;;7.47;3.95;;;;;;;24.68;41.78;99922.03;4493386;31;34355;-62
2023/05/27 06:09:25;;;;;;;8.32;4.20;;;;;;;24.53;41.28;99919.44;4497732;31;33732;-62
2023/05/27 06:11:53;;;;;;;6.87;4.37;;;;;;;24.67;40.10;99922.25;4485832;31;33697;-62
2023/05/27 06:14:22;;;;;;;6.97;4.00;;;;;;;24.71;40.81;99932.59;4491928;31;35156;-62
2023/05/27 06:16:50;;;;;;;8.80;3.47;;;;;;;24.64;40.71;99926.25;4489959;31;34566;-62
2023/05/27 06:19:18;;;;;;;8.30;3.80;;;;;;;24.67;40.98;99931.31;4493494;31;34501;-62
2023/05/27 06:21:46;;;;;;;6.75;4.00;;;;;;;24.68;40.99;99943.94;4495094;31;32119;-62
2023/05/27 06:24:16;;;;;;;6.47;3.47;;;;;;;24.55;40.35;99944.69;4490755;31;33925;-62
2023/05/27 06:26:44;;;;;;;7.15;3.62;;;;;;;24.71;38.94;99949.00;4493601;31;33943;-62
2023/05/27 06:29:12;;;;;;;7.28;3.70;;;;;;;23.58;41.11;99960.84;4494473;31;33568;-62
2023/05/27 06:31:39;;;;;;;7.82;4.10;;;;;;;23.69;41.45;99957.63;4485886;31;33582;-62
2023/05/27 06:34:07;;;;;;;12.37;3.78;;;;;;;24.10;39.83;99954.22;4487215;31;34091;-62
2023/05/27 06:36:35;;;;;;;4.87;3.20;;;;;;;23.49;41.41;99955.50;4495895;31;34260;-62
2023/05/27 06:39:03;;;;;;;7.68;4.37;;;;;;;24.07;40.02;99957.34;4495232;31;32091;-62
2023/05/27 06:41:32;;;;;;;6.15;3.67;;;;;;;24.29;39.57;99960.91;4497578;31;34552;-62
2023/05/27 06:44:02;;;;;;;9.38;4.50;;;;;;;24.43;40.69;99951.78;4495720;31;33054;-62
2023/05/27 06:46:36;;;;;;;6.72;3.05;;;;;;;23.31;40.64;99957.84;4495226;31;33866;-62
2023/05/27 06:49:05;;;;;;;10.15;3.92;;;;;;;23.84;41.21;99958.41;4495146;31;33381;-63
2023/05/27 06:51:33;;;;;;;7.10;3.78;;;;;;;24.17;40.49;99957.84;4495944;31;33602;-62
2023/05/27 06:54:01;;;;;;;6.62;3.47;;;;;;;24.43;39.57;99964.59;4490867;31;34898;-62
2023/05/27 06:56:30;;;;;;;6.45;3.65;;;;;;;23.97;40.68;99962.31;4490184;31;35091;-62
2023/05/27 06:58:58;;;;;;;6.97;3.03;;;;;;;24.01;42.14;99958.13;4497037;31;33634;-62
2023/05/27 07:01:25;;;;;;;6.55;3.60;;;;;;;24.67;38.35;99968.78;4489294;31;33895;-63
2023/05/27 07:03:53;;;;;;;8.10;4.30;;;;;;;24.46;37.41;99967.78;4490887;31;34050;-62
2023/05/27 07:06:22;;;;;;;8.48;4.00;;;;;;;24.61;37.40;99968.53;4499023;31;34121;-62
2023/05/27 07:08:49;;;;;;;6.22;3.65;;;;;;;24.35;37.76;99963.69;4486850;31;33352;-62
2023/05/27 07:11:18;;;;;;;11.70;4.00;;;;;;;24.72;38.49;99977.22;4482874;31;34063;-62
2023/05/27 07:13:45;;;;;;;6.28;2.90;;;;;;;24.60;37.66;99975.06;4488173;31;34975;-62
2023/05/27 07:16:13;;;;;;;8.65;3.62;;;;;;;24.67;38.03;99966.03;4489548;31;33054;-62
2023/05/27 07:18:41;;;;;;;9.05;3.25;;;;;;;24.63;37.48;99973.81;4492485;31;33771;-62
2023/05/27 07:21:09;;;;;;;9.23;3.60;;;;;;;24.65;37.29;99977.19;4492175;31;33709;-62
2023/05/27 07:23:37;;;;;;;8.27;3.97;;;;;;;23.92;39.29;99974.69;4483713;31;33911;-62
2023/05/27 07:26:05;;;;;;;7.28;3.50;;;;;;;24.05;38.50;99981.31;4485582;31;34245;-62
2023/05/27 07:28:33;;;;;;;7.07;3.37;;;;;;;23.86;37.89;99974.62;4493096;31;33582;-62
2023/05/27 07:31:01;;;;;;;7.72;3.28;;;;;;;23.86;38.73;99969.16;4487686;31;35451;-62
2023/05/27 07:33:30;;;;;;;5.78;2.95;;;;;;;24.37;38.12;99975.28;4494827;31;34010;-62
2023/05/27 07:35:58;;;;;;;5.20;3.05;;;;;;;24.60;37.83;99979.69;4492089;31;34857;-62
2023/05/27 07:38:25;;;;;;;7.62;3.37;;;;;;;24.52;37.50;99977.09;4489619;31;34571;-62
2023/05/27 07:40:53;;;;;;;6.10;2.87;;;;;;;24.14;39.21;99978.25;4485221;31;34860;-62
2023/05/27 07:43:21;;;;;;;10.80;2.58;;;;;;;24.09;36.96;99974.41;4488457;31;33918;-62
2023/05/27 07:45:49;;;;;;;6.95;3.17;;;;;;;24.15;37.33;99970.91;4494437;31;35039;-63
2023/05/27 07:48:16;;;;;;;5.65;3.37;;;;;;;23.71;38.32;99977.41;4494819;31;33548;-62
2023/05/27 07:50:44;;;;;;;8.85;3.00;;;;;;;24.04;39.51;99965.94;4494100;31;32707;-62
2023/05/27 07:53:14;;;;;;;9.20;3.33;;;;;;;24.41;38.18;99967.56;4493204;31;34960;-62
2023/05/27 07:55:42;;;;;;;7.82;3.85;;;;;;;24.43;37.57;99965.47;4490791;31;33841;-62
2023/05/27 07:58:10;;;;;;;8.52;3.00;;;;;;;24.76;37.11;99967.59;4493960;31;33794;-62
2023/05/27 08:00:39;;;;;;;11.50;3.67;;;;;;;24.70;37.09;99966.47;4495412;31;33439;-63
2023/05/27 08:03:07;;;;;;;5.80;3.17;;;;;;;24.92;36.57;99961.78;4490466;31;33770;-62
2023/05/27 08:05:35;;;;;;;7.30;3.12;;;;;;;24.79;37.64;99958.97;4491019;31;34198;-62
2023/05/27 08:08:03;;;;;;;5.55;3.15;;;;;;;24.69;38.24;99953.84;4483798;31;33538;-62
2023/05/27 08:10:32;;;;;;;11.95;3.15;;;;;;;25.01;37.32;99951.50;4492346;31;34188;-62
2023/05/27 08:13:00;;;;;;;8.82;3.95;;;;;;;25.19;35.65;99953.69;4493046;31;35149;-62
2023/05/27 08:15:30;;;;;;;7.37;3.20;;;;;;;25.13;36.11;99949.88;4492894;31;33928;-62
2023/05/27 08:17:59;;;;;;;6.97;2.55;;;;;;;25.13;36.36;99957.25;4481647;31;34433;-62
2023/05/27 08:20:27;;;;;;;7.35;2.92;;;;;;;24.84;36.68;99951.81;4487134;31;34015;-62
2023/05/27 08:22:55;;;;;;;7.93;2.90;;;;;;;24.92;36.38;99953.56;4489872;31;33950;-62
2023/05/27 08:25:23;;;;;;;5.97;3.55;;;;;;;24.87;36.70;99950.56;4490155;31;35204;-62
2023/05/27 08:27:58;;;;;;;5.65;3.17;;;;;;;24.79;37.31;99951.59;4492129;31;33746;-62
2023/05/27 08:30:30;;;;;;;5.72;2.92;;;;;;;25.04;35.99;99951.06;4493300;31;33172;-62
2023/05/27 08:32:59;;;;;;;3.55;2.30;;;;;;;25.31;36.77;99941.09;4492952;31;33978;-62
2023/05/27 08:35:26;;;;;;;7.22;3.40;;;;;;;24.96;37.64;99946.63;4495936;31;34537;-62
2023/05/27 08:37:54;;;;;;;7.43;3.60;;;;;;;25.48;35.37;99941.56;4489488;31;33428;-62
2023/05/27 08:40:23;;;;;;;6.60;3.80;;;;;;;25.36;35.33;99943.22;4493533;31;32835;-62
2023/05/27 08:42:53;;;;;;;9.13;3.33;;;;;;;25.63;35.10;99944.97;4491100;31;35272;-62
2023/05/27 08:45:22;;;;;;;6.85;3.28;;;;;;;25.34;37.02;99943.44;4497604;31;34201;-62
2023/05/27 08:47:49;;;;;;;8.68;4.12;;;;;;;25.80;35.48;99942.69;4489012;31;32645;-62
2023/05/27 08:50:18;;;;;;;6.97;3.95;;;;;;;25.33;38.26;99939.84;4490540;31;33811;-62
2023/05/27 08:52:47;;;;;;;8.73;4.70;;;;;;;25.69;36.07;99940.56;4494507;31;35122;-62
2023/05/27 08:55:20;;;;;;;6.50;3.97;;;;;;;25.32;36.62;99940.03;4485720;31;34360;-62
2023/05/27 08:57:51;;;;;;;6.78;3.28;;;;;;;25.89;34.76;99946.94;4500658;31;33459;-62
2023/05/27 09:00:19;;;;;;;5.20;3.08;;;;;;;25.85;35.03;99951.16;4493655;31;35042;-62
2023/05/27 09:02:47;;;;;;;10.13;3.95;;;;;;;25.61;35.34;99946.22;4492352;31;34203;-62
2023/05/27 09:05:17;;;;;;;6.28;3.47;;;;;;;26.16;33.99;99944.19;4495735;31;34084;-62
2023/05/27 09:07:45;;;;;;;8.45;3.62;;;;;;;25.86;34.49;99947.37;4489751;31;33915;-62
2023/05/27 09:10:13;;;;;;;4.22;2.50;;;;;;;25.71;34.37;99946.66;4491777;31;33692;-62
2023/05/27 09:12:45;;;;;;;8.65;3.30;;;;;;;26.00;35.35;99939.97;4492618;31;33880;-62
2023/05/27 09:15:13;;;;;;;7.05;3.37;;;;;;;25.17;35.88;99942.09;4489229;31;34962;-62
2023/05/27 09:17:42;;;;;;;6.07;3.17;;;;;;;25.76;36.29;99944.16;4490471;31;33502;-62
2023/05/27 09:20:11;;;;;;;6.87;3.65;;;;;;;25.66;35.56;99941.81;4490607;31;33901;-62
2023/05/27 09:22:39;;;;;;;8.88;3.80;;;;;;;25.88;35.02;99947.16;4494447;31;33765;-62
2023/05/27 09:25:08;;;;;;;7.18;4.12;;;;;;;25.87;34.96;99949.03;4497255;31;32902;-63
2023/05/27 09:27:36;;;;;;;5.90;2.97;;;;;;;26.06;33.97;99941.88;4497928;31;34218;-63
2023/05/27 09:30:08;;;;;;;7.20;3.92;;;;;;;26.10;34.79;99937.69;4492706;31;32094;-63
2023/05/27 09:32:36;;;;;;;6.05;3.58;;;;;;;26.12;34.77;99934.72;4496496;31;33777;-63
2023/05/27 09:35:07;;;;;;;9.90;3.60;;;;;;;26.31;33.59;99941.25;4495330;31;34467;-63
2023/05/27 09:37:35;;;;;;;5.85;3.53;;;;;;;26.55;33.52;99932.41;4492668;31;33510;-62
2023/05/27 09:40:10;;;;;;;6.87;3.58;;;;;;;26.94;32.73;99925.94;4493004;31;33638;-63
2023/05/27 09:42:45;;;;;;;6.72;3.90;;;;;;;26.43;32.99;99923.94;4493912;31;35114;-63
2023/05/27 09:45:17;;;;;;;8.68;3.42;;;;;;;26.94;33.12;99920.44;4496680;31;34309;-63
2023/05/27 09:47:52;;;;;;;8.52;3.95;;;;;;;26.90;32.52;99929.31;4494915;31;33380;-63
2023/05/27 09:50:21;;;;;;;6.97;3.50;;;;;;;26.68;33.77;99926.88;4494044;31;34761;-63
2023/05/27 09:52:49;;;;;;;6.05;3.83;;;;;;;27.25;32.05;99929.00;4496797;31;34091;-63
2023/05/27 09:55:39;;;;;;;10.07;4.47;;;;;;;26.99;31.54;99924.44;4489433;31;34137;-62
2023/05/27 09:58:06;;;;;;;8.60;4.45;;;;;;;27.24;30.82;99924.56;4496915;31;33643;-62
2023/05/27 10:00:34;;;;;;;7.03;4.00;;;;;;;27.31;30.33;99933.63;4496859;31;33860;-63
2023/05/27 10:03:03;;;;;;;9.32;4.03;;;;;;;26.91;31.30;99931.84;4494962;31;34898;-63
2023/05/27 10:05:31;;;;;;;9.80;3.97;;;;;;;27.25;31.18;99926.25;4488902;31;35024;-63
2023/05/27 10:07:58;;;;;;;8.55;3.53;;;;;;;26.96;32.09;99914.72;4497148;31;34240;-63
2023/05/27 10:10:45;;;;;;;11.25;4.28;;;;;;;27.32;32.08;99919.66;4496906;31;33910;-62
2023/05/27 10:13:15;;;;;;;9.38;3.85;;;;;;;27.13;32.34;99917.84;4485357;31;33758;-63
2023/05/27 10:15:50;;;;;;;10.40;4.03;;;;;;;27.38;32.77;99917.91;4493256;31;34291;-63
2023/05/27 10:18:26;;;;;;;8.57;3.90;;;;;;;27.60;32.30;99912.94;4489813;31;33762;-63
2023/05/27 10:20:56;;;;;;;7.82;3.75;;;;;;;27.87;32.12;99913.62;4494083;31;33439;-63
2023/05/27 10:23:29;;;;;;;10.00;4.28;;;;;;;27.99;30.71;99917.31;4492942;31;33987;-63
2023/05/27 10:26:07;;;;;;;7.32;3.72;;;;;;;28.32;29.87;99911.53;4490989;31;34874;-63
2023/05/27 10:28:40;;;;;;;8.45;4.05;;;;;;;28.28;30.42;99904.81;4498787;31;33727;-63
2023/05/27 10:31:10;;;;;;;11.15;4.22;;;;;;;28.69;28.70;99900.56;4488289;31;34868;-63
2023/05/27 10:33:41;;;;;;;7.78;4.22;;;;;;;28.28;31.23;99910.31;4494306;31;33887;-63
2023/05/27 10:36:11;;;;;;;7.75;3.35;;;;;;;28.60;29.93;99912.13;4494039;31;34306;-63
2023/05/27 10:38:41;;;;;;;6.72;3.35;;;;;;;29.01;29.10;99905.94;4490653;31;33894;-63
2023/05/27 10:41:09;;;;;;;9.65;4.12;;;;;;;29.01;29.42;99905.94;4497626;31;33734;-63
2023/05/27 10:43:36;;;;;;;9.63;4.80;;;;;;;28.68;29.16;99914.56;4491985;31;33821;-63
2023/05/27 10:46:13;;;;;;;8.68;4.97;;;;;;;28.21;29.25;99914.16;4486172;31;34150;-63
2023/05/27 10:48:41;;;;;;;7.37;4.28;;;;;;;28.45;29.74;99907.00;4490664;31;33134;-63
2023/05/27 10:51:09;;;;;;;8.93;3.92;;;;;;;29.07;27.09;99899.50;4488390;31;34081;-63
2023/05/27 10:53:37;;;;;;;5.85;3.55;;;;;;;27.87;28.92;99895.22;4491756;31;33931;-63
2023/05/27 10:56:05;;;;;;;6.45;4.00;;;;;;;28.51;29.03;99912.44;4492545;31;34958;-63
2023/05/27 10:58:34;;;;;;;8.00;4.12;;;;;;;28.52;28.74;99902.25;4490596;31;34618;-63
2023/05/27 11:01:11;;;;;;;8.55;3.95;;;;;;;29.06;28.13;99891.47;4488802;31;34096;-63
2023/05/27 11:03:44;;;;;;;6.47;4.12;;;;;;;28.98;27.46;99898.09;4482453;31;34314;-63
2023/05/27 11:06:13;;;;;;;8.43;4.20;;;;;;;29.05;28.64;99898.06;4493420;31;34389;-63
2023/05/27 11:08:41;;;;;;;10.88;5.07;;;;;;;29.15;28.56;99890.06;4498575;31;33073;-63
2023/05/27 11:11:10;;;;;;;8.23;4.25;;;;;;;29.55;28.72;99889.50;4487694;31;33861;-63
2023/05/27 11:13:45;;;;;;;8.82;3.85;;;;;;;29.34;28.58;99885.34;4487021;31;34917;-63
2023/05/27 11:16:16;;;;;;;7.95;4.53;;;;;;;29.42;28.48;99888.63;4492172;31;35173;-63
2023/05/27 11:18:47;;;;;;;6.70;3.80;;;;;;;29.12;28.52;99885.03;4490470;31;32728;-64
2023/05/27 11:21:16;;;;;;;9.05;4.80;;;;;;;29.90;27.33;99884.09;4486679;31;34953;-63
2023/05/27 11:23:45;;;;;;;11.68;4.60;;;;;;;29.79;28.21;99882.16;4481693;31;34156;-63
2023/05/27 11:26:13;;;;;;;8.00;4.00;;;;;;;29.77;28.76;99887.91;4492831;31;35284;-63
2023/05/27 11:28:46;;;;;;;8.10;3.87;;;;;;;29.90;27.37;99884.94;4492833;31;33453;-63
2023/05/27 11:31:14;;;;;;;9.25;4.53;;;;;;;29.88;26.88;99872.44;4495242;31;33988;-63
2023/05/27 11:33:44;;;;;;;7.35;3.90;;;;;;;28.86;27.89;99873.28;4492519;31;33981;-63
2023/05/27 11:36:13;;;;;;;8.25;4.70;;;;;;;29.31;29.03;99880.31;4487461;31;34990;-63
2023/05/27 11:38:58;;;;;;;11.60;4.30;;;;;;;29.50;28.87;99879.16;4493312;31;33609;-63
2023/05/27 11:41:26;;;;;;;;;;;;;;;29.97;27.25;99883.97;4489882;31;33824;-64